Time;durP1;ratioP1;P1;durP2;ratioP2;P2;SDS_P1;SDS_P2;PMS_P1;PMS_P2;Temp;Humidity;BMP_temperature;BMP_pressure;BME280_temperature;BME280_humidity;BME280_pressure;Samples;Min_cycle;Max_cycle;Signal;HPM_P1;HPM_P2
2022/07/20 00:01:36;;;;;;;2.42;1.92;;;18.10;79.70;;;;;;5054268;28;20036;-89
2022/07/20 00:04:03;;;;;;;2.83;1.83;;;18.10;79.40;;;;;;5054754;28;20036;-87
2022/07/20 00:06:29;;;;;;;3.25;2.25;;;18.10;79.40;;;;;;5051518;28;20063;-88
2022/07/20 00:11:39;;;;;;;6.25;2.90;;;18.10;79.60;;;;;;5069011;28;20436;-89
2022/07/20 00:14:06;;;;;;;5.20;2.47;;;18.10;79.50;;;;;;5050780;28;20067;-86
2022/07/20 00:16:34;;;;;;;5.28;2.65;;;18.10;79.60;;;;;;5052828;28;20161;-86
2022/07/20 00:19:00;;;;;;;7.15;2.53;;;18.00;79.80;;;;;;5051935;28;20090;-85
2022/07/20 00:21:26;;;;;;;6.88;3.13;;;18.10;80.50;;;;;;5050334;28;20033;-86
2022/07/20 00:23:52;;;;;;;4.35;2.65;;;18.00;80.00;;;;;;5017287;28;20048;-86
2022/07/20 00:26:18;;;;;;;5.60;3.20;;;18.00;80.00;;;;;;5050567;28;20021;-86
2022/07/20 00:28:44;;;;;;;10.05;3.35;;;18.00;79.70;;;;;;5050158;28;20037;-82
2022/07/20 00:31:10;;;;;;;8.45;3.30;;;18.00;79.80;;;;;;5050238;28;20037;-85
2022/07/20 00:33:36;;;;;;;10.52;3.35;;;18.00;79.80;;;;;;5050302;28;20029;-83
2022/07/20 00:36:03;;;;;;;5.65;3.05;;;18.00;80.10;;;;;;5050195;28;20445;-85
2022/07/20 00:38:29;;;;;;;7.82;3.30;;;18.00;80.20;;;;;;5050720;28;20029;-87
2022/07/20 00:40:55;;;;;;;5.63;3.95;;;17.90;80.40;;;;;;5048655;28;20071;-87
2022/07/20 00:43:21;;;;;;;10.15;3.72;;;17.90;80.20;;;;;;5071318;28;20029;-83
2022/07/20 00:45:47;;;;;;;9.00;3.97;;;17.90;80.40;;;;;;5048341;28;20053;-84
2022/07/20 00:48:13;;;;;;;7.28;3.83;;;17.90;80.00;;;;;;5049161;28;20466;-83
2022/07/20 00:50:39;;;;;;;7.97;3.95;;;17.80;79.60;;;;;;5048732;28;20151;-84
2022/07/20 00:53:07;;;;;;;7.28;3.80;;;17.80;79.40;;;;;;5047539;28;20107;-83
2022/07/20 00:55:33;;;;;;;7.55;3.05;;;17.70;79.70;;;;;;5048508;28;20495;-85
2022/07/20 00:57:59;;;;;;;5.10;3.20;;;17.70;79.50;;;;;;5047161;28;20041;-85
2022/07/20 01:00:25;;;;;;;6.50;3.05;;;17.70;79.80;;;;;;5046798;28;20044;-84
2022/07/20 01:02:51;;;;;;;6.95;3.45;;;17.70;79.90;;;;;;5048907;28;20139;-84
2022/07/20 01:05:17;;;;;;;7.85;2.97;;;17.70;79.80;;;;;;5044419;28;20040;-83
2022/07/20 01:07:45;;;;;;;5.10;2.88;;;17.70;80.00;;;;;;5027021;28;20044;-88
2022/07/20 01:10:13;;;;;;;5.40;3.00;;;17.70;80.30;;;;;;5030806;28;20029;-85
2022/07/20 01:12:43;;;;;;;4.43;2.50;;;17.70;80.10;;;;;;5047676;28;20029;-87
2022/07/20 01:15:10;;;;;;;5.90;2.90;;;17.70;80.40;;;;;;5064088;28;20553;-86
2022/07/20 01:17:36;;;;;;;5.30;2.78;;;17.70;80.60;;;;;;5049825;28;21276;-88
2022/07/20 01:20:02;;;;;;;8.43;3.17;;;17.70;80.50;;;;;;5050729;28;20032;-85
2022/07/20 01:22:28;;;;;;;5.60;2.97;;;17.70;80.60;;;;;;5051464;28;20037;-87
2022/07/20 01:24:54;;;;;;;6.88;3.20;;;17.70;80.10;;;;;;5052439;28;20029;-86
2022/07/20 01:27:20;;;;;;;6.38;3.20;;;17.70;80.50;;;;;;5056480;28;20053;-85
2022/07/20 01:29:46;;;;;;;8.82;3.95;;;17.60;80.00;;;;;;5056459;28;20029;-88
2022/07/20 01:32:12;;;;;;;7.72;3.28;;;17.60;79.40;;;;;;5051790;28;20053;-85
2022/07/20 01:34:38;;;;;;;6.07;3.75;;;17.60;80.10;;;;;;5054545;28;20052;-86
2022/07/20 01:37:05;;;;;;;8.82;3.65;;;17.50;79.70;;;;;;5055338;28;20033;-85
2022/07/20 01:39:31;;;;;;;6.72;3.67;;;17.50;79.50;;;;;;5055636;28;20120;-86
2022/07/20 01:41:57;;;;;;;8.55;3.42;;;17.50;79.20;;;;;;5055757;28;20044;-82
2022/07/20 01:44:23;;;;;;;5.93;3.63;;;17.50;79.40;;;;;;5063908;28;20033;-87
2022/07/20 01:46:51;;;;;;;9.00;3.55;;;17.50;79.50;;;;;;5069242;28;20052;-88
2022/07/20 01:49:18;;;;;;;8.98;3.85;;;17.60;79.70;;;;;;5082263;28;20166;-87
2022/07/20 01:51:44;;;;;;;6.82;3.50;;;17.60;80.10;;;;;;5067616;28;20051;-88
2022/07/20 01:54:11;;;;;;;6.35;3.65;;;17.70;80.20;;;;;;5062022;28;20067;-93
2022/07/20 01:56:40;;;;;;;6.45;3.63;;;17.60;80.10;;;;;;5054507;28;20052;-89
2022/07/20 01:59:07;;;;;;;6.95;3.60;;;17.60;80.10;;;;;;5057352;28;20146;-89
2022/07/20 02:01:34;;;;;;;7.45;3.55;;;17.60;80.00;;;;;;5035920;28;20081;-85
2022/07/20 02:04:00;;;;;;;6.43;3.35;;;17.60;80.00;;;;;;5051007;28;20407;-83
2022/07/20 02:06:26;;;;;;;6.60;3.80;;;17.60;79.90;;;;;;5056119;28;20044;-91
2022/07/20 02:08:52;;;;;;;5.55;3.03;;;17.60;80.30;;;;;;5053521;28;20053;-85
2022/07/20 02:11:18;;;;;;;8.68;3.55;;;17.70;79.90;;;;;;5058092;28;20059;-87
2022/07/20 02:13:44;;;;;;;7.07;3.30;;;17.70;80.10;;;;;;5069582;28;20080;-84
2022/07/20 02:16:16;;;;;;;7.10;3.20;;;17.80;79.80;;;;;;5065830;28;20040;-89
2022/07/20 02:18:52;;;;;;;6.03;3.60;;;17.80;80.00;;;;;;5040810;28;20040;-89
2022/07/20 02:21:20;;;;;;;11.85;3.72;;;17.80;80.20;;;;;;5043053;28;20060;-84
2022/07/20 02:23:47;;;;;;;6.32;3.17;;;17.70;79.50;;;;;;5061748;28;20032;-89
2022/07/20 02:26:14;;;;;;;5.07;2.45;;;17.80;78.90;;;;;;5068548;28;20021;-80
2022/07/20 02:28:41;;;;;;;5.25;3.00;;;17.80;79.20;;;;;;5073176;28;20029;-79
2022/07/20 02:31:08;;;;;;;4.80;2.75;;;17.80;78.90;;;;;;5072471;28;20044;-81
2022/07/20 02:33:34;;;;;;;3.17;2.65;;;17.80;78.30;;;;;;5074179;28;20104;-83
2022/07/20 02:36:01;;;;;;;3.80;2.28;;;17.80;78.40;;;;;;5072395;28;20056;-79
2022/07/20 02:38:27;;;;;;;4.35;1.90;;;17.80;78.30;;;;;;5074407;28;20021;-79
2022/07/20 02:40:54;;;;;;;4.95;2.20;;;17.80;78.30;;;;;;5073245;28;20033;-81
2022/07/20 02:43:20;;;;;;;5.90;2.33;;;17.90;78.20;;;;;;5053261;28;20036;-80
2022/07/20 02:45:47;;;;;;;3.17;2.30;;;18.10;78.40;;;;;;5068441;28;20060;-84
2022/07/20 02:48:13;;;;;;;5.07;2.38;;;18.20;78.40;;;;;;5051292;28;20075;-82
2022/07/20 02:50:41;;;;;;;5.80;2.10;;;18.20;77.80;;;;;;5150898;22;20067;-81
2022/07/20 02:53:09;;;;;;;4.47;1.80;;;18.30;77.50;;;;;;5085362;28;20029;-90
2022/07/20 02:55:35;;;;;;;3.17;1.85;;;18.30;77.40;;;;;;5086312;28;20068;-88
2022/07/20 02:58:02;;;;;;;2.15;1.75;;;18.30;77.30;;;;;;5087151;28;20187;-85
2022/07/20 03:00:29;;;;;;;6.40;1.90;;;18.30;77.40;;;;;;5085353;28;20024;-86
2022/07/20 03:02:55;;;;;;;4.70;2.50;;;18.30;77.50;;;;;;5085948;28;20033;-88
2022/07/20 03:05:21;;;;;;;3.88;2.42;;;18.30;77.10;;;;;;5075648;28;20088;-82
2022/07/20 03:07:47;;;;;;;4.38;1.83;;;18.40;77.10;;;;;;5073132;28;20064;-90
2022/07/20 03:10:13;;;;;;;3.85;1.80;;;18.40;77.10;;;;;;5066052;28;20115;-89
2022/07/20 03:12:39;;;;;;;4.47;2.05;;;18.50;76.70;;;;;;5062296;28;20040;-90
2022/07/20 03:15:07;;;;;;;1.95;1.63;;;18.60;76.90;;;;;;5044879;28;20116;-87
2022/07/20 03:17:39;;;;;;;4.80;1.80;;;18.70;76.90;;;;;;5063962;28;20032;-79
2022/07/20 03:20:06;;;;;;;7.03;1.80;;;18.70;76.40;;;;;;5064897;28;20021;-91
2022/07/20 03:22:32;;;;;;;4.10;1.70;;;18.70;76.20;;;;;;5063850;28;20036;-91
2022/07/20 03:24:57;;;;;;;3.35;1.63;;;18.80;76.30;;;;;;5064476;28;20036;-87
2022/07/20 03:27:23;;;;;;;1.77;1.50;;;18.90;76.10;;;;;;5064454;28;20036;-89
2022/07/20 03:29:49;;;;;;;4.63;2.03;;;19.00;76.00;;;;;;5041425;28;20967;-88
2022/07/20 03:32:15;;;;;;;2.88;1.30;;;19.10;75.80;;;;;;5062925;28;20372;-92
2022/07/20 03:34:41;;;;;;;1.98;1.30;;;19.10;75.50;;;;;;5039282;28;20040;-87
2022/07/20 03:37:07;;;;;;;3.88;1.42;;;19.00;75.00;;;;;;5059938;28;20033;-92
2022/07/20 03:39:33;;;;;;;2.30;1.35;;;19.10;75.60;;;;;;5042589;28;20167;-90
2022/07/20 03:41:59;;;;;;;2.03;1.38;;;19.10;75.20;;;;;;5059522;28;20523;-90
2022/07/20 03:44:25;;;;;;;5.30;1.40;;;19.10;75.30;;;;;;5059233;28;20116;-90
2022/07/20 03:46:51;;;;;;;4.72;1.42;;;19.20;75.50;;;;;;5063517;28;20043;-89
2022/07/20 03:49:16;;;;;;;4.05;1.52;;;19.40;75.40;;;;;;5057800;28;20049;-86
2022/07/20 03:51:42;;;;;;;6.93;1.98;;;19.40;74.90;;;;;;5058509;28;20506;-89
2022/07/20 03:54:08;;;;;;;6.50;1.48;;;19.60;75.00;;;;;;5061138;28;20037;-92
2022/07/20 03:56:40;;;;;;;2.95;1.30;;;19.60;74.90;;;;;;5061325;28;20029;-91
2022/07/20 03:59:09;;;;;;;2.75;1.50;;;19.70;74.90;;;;;;5061039;28;20029;-90
2022/07/20 04:01:36;;;;;;;2.67;1.40;;;19.80;74.30;;;;;;5060556;28;20029;-91
2022/07/20 04:04:02;;;;;;;2.13;1.23;;;19.90;74.30;;;;;;5059086;28;20085;-91
2022/07/20 04:06:28;;;;;;;4.43;1.27;;;20.00;74.30;;;;;;5060618;28;20456;-92
2022/07/20 04:08:54;;;;;;;1.70;1.25;;;20.00;74.30;;;;;;5061401;28;20028;-95
2022/07/20 04:11:20;;;;;;;2.72;1.30;;;19.90;74.40;;;;;;5062812;28;20082;-92
2022/07/20 04:13:46;;;;;;;3.70;1.30;;;19.90;74.30;;;;;;5060918;28;20028;-91
2022/07/20 04:16:12;;;;;;;3.55;1.45;;;19.80;74.70;;;;;;5057659;28;20060;-87
2022/07/20 04:18:38;;;;;;;1.23;1.13;;;19.70;74.90;;;;;;5057400;28;20490;-87
2022/07/20 04:21:04;;;;;;;3.60;1.40;;;19.70;75.40;;;;;;5058873;28;20038;-88
2022/07/20 04:23:31;;;;;;;1.75;1.20;;;19.60;75.30;;;;;;5058447;28;20032;-86
2022/07/20 04:25:56;;;;;;;2.20;1.20;;;19.50;75.20;;;;;;5057063;28;20612;-84
2022/07/20 04:28:23;;;;;;;1.40;1.30;;;19.50;75.70;;;;;;5057675;28;20036;-88
2022/07/20 04:30:49;;;;;;;5.35;1.60;;;19.40;75.90;;;;;;5040903;28;20491;-90
2022/07/20 04:33:15;;;;;;;2.97;1.45;;;19.40;76.20;;;;;;5058927;28;20031;-89
2022/07/20 04:35:41;;;;;;;3.08;1.20;;;19.40;76.30;;;;;;5039770;28;20028;-86
2022/07/20 04:38:07;;;;;;;4.95;1.63;;;19.40;76.40;;;;;;5041097;28;20029;-90
2022/07/20 04:40:33;;;;;;;2.25;1.20;;;19.40;76.60;;;;;;5058450;28;20441;-90
2022/07/20 04:42:58;;;;;;;3.78;1.77;;;19.40;76.70;;;;;;5057393;28;20040;-90
2022/07/20 04:45:25;;;;;;;4.00;1.80;;;19.50;76.80;;;;;;5059998;28;20035;-88
2022/07/20 04:47:51;;;;;;;1.90;1.48;;;19.40;77.00;;;;;;5020698;28;20219;-91
2022/07/20 04:50:16;;;;;;;3.63;1.13;;;19.40;77.30;;;;;;5064562;28;20589;-86
2022/07/20 04:52:42;;;;;;;1.70;1.55;;;19.40;77.40;;;;;;5066442;28;20040;-89
2022/07/20 04:55:09;;;;;;;3.67;1.30;;;19.30;77.60;;;;;;5057650;28;20385;-89
2022/07/20 04:57:35;;;;;;;3.33;1.60;;;19.20;78.20;;;;;;5056675;28;20063;-89
2022/07/20 05:00:02;;;;;;;3.88;1.52;;;19.20;78.40;;;;;;5019340;28;20091;-89
2022/07/20 05:02:28;;;;;;;2.08;1.80;;;19.10;78.80;;;;;;5075532;28;20040;-88
2022/07/20 05:04:54;;;;;;;4.45;1.80;;;19.20;79.00;;;;;;5057834;28;20082;-90
2022/07/20 05:07:20;;;;;;;6.63;2.08;;;19.20;78.80;;;;;;5058520;28;20037;-88
2022/07/20 05:09:46;;;;;;;5.97;1.83;;;19.20;79.00;;;;;;5056632;28;20029;-87
2022/07/20 05:12:12;;;;;;;4.50;1.65;;;19.20;79.20;;;;;;5057123;28;20029;-92
2022/07/20 05:14:41;;;;;;;1.83;1.60;;;19.10;79.20;;;;;;5066325;28;20039;-88
2022/07/20 05:17:07;;;;;;;3.65;1.65;;;19.20;79.70;;;;;;5026061;28;20079;-93
2022/07/20 05:19:33;;;;;;;5.22;1.60;;;19.10;80.10;;;;;;5058606;28;20514;-91
2022/07/20 05:22:00;;;;;;;2.53;1.55;;;19.20;80.60;;;;;;5059964;28;20064;-87
2022/07/20 05:24:26;;;;;;;3.53;1.70;;;19.20;81.10;;;;;;5056283;28;20029;-92
2022/07/20 05:26:52;;;;;;;4.40;1.40;;;19.20;81.30;;;;;;5046765;28;20059;-91
2022/07/20 05:29:18;;;;;;;3.55;1.60;;;19.20;81.60;;;;;;5061687;28;20098;-83
2022/07/20 05:31:44;;;;;;;2.90;1.50;;;19.10;82.00;;;;;;5062747;28;20146;-92
2022/07/20 05:34:09;;;;;;;2.58;1.65;;;19.20;82.20;;;;;;5062657;28;20514;-91
2022/07/20 05:36:35;;;;;;;3.95;2.00;;;19.10;82.40;;;;;;5063569;28;20114;-91
2022/07/20 05:39:11;;;;;;;1.75;1.40;;;19.10;82.80;;;;;;5180045;22;20045;31
2022/07/20 05:44:43;;;;;;;2.10;1.80;;;19.20;83.20;;;;;;4935073;28;20055;-93
2022/07/20 05:47:09;;;;;;;3.10;2.05;;;19.10;83.40;;;;;;4909944;29;20035;-93
2022/07/20 05:49:36;;;;;;;4.97;2.00;;;19.00;83.40;;;;;;4930721;29;20035;-90
2022/07/20 05:52:03;;;;;;;5.57;2.05;;;19.10;83.80;;;;;;4943199;29;20032;-88
2022/07/20 05:54:29;;;;;;;7.03;1.98;;;19.10;83.80;;;;;;4929569;29;20040;-93
2022/07/20 05:56:55;;;;;;;3.90;2.08;;;19.10;84.10;;;;;;4932599;29;20126;-91
2022/07/20 05:59:21;;;;;;;3.58;2.50;;;19.10;83.80;;;;;;5001806;23;20484;-84
2022/07/20 06:01:47;;;;;;;6.18;2.42;;;19.00;83.30;;;;;;4956385;28;20042;-88
2022/07/20 06:04:14;;;;;;;6.25;2.47;;;19.10;83.90;;;;;;4948239;28;20034;-83
2022/07/20 06:06:40;;;;;;;6.95;2.22;;;19.10;84.20;;;;;;4947597;28;20031;-89
2022/07/20 06:09:07;;;;;;;4.10;2.55;;;19.10;84.30;;;;;;4962918;28;20579;-89
2022/07/20 06:11:34;;;;;;;4.30;2.65;;;19.00;84.30;;;;;;4948427;28;20023;-89
2022/07/20 06:14:00;;;;;;;5.60;2.20;;;19.00;84.70;;;;;;4958128;28;21019;-91
2022/07/20 06:16:27;;;;;;;4.85;2.65;;;19.00;85.00;;;;;;4969576;28;20034;-88
2022/07/20 06:18:53;;;;;;;3.75;2.50;;;19.00;84.70;;;;;;4949621;28;20041;-88
2022/07/20 06:21:19;;;;;;;3.30;2.53;;;18.90;84.50;;;;;;4983361;28;20038;-88
2022/07/20 06:23:45;;;;;;;3.88;2.83;;;18.90;84.80;;;;;;4982613;28;20031;-89
2022/07/20 06:26:11;;;;;;;4.45;2.95;;;18.90;85.60;;;;;;4982568;28;20341;-88
2022/07/20 06:28:37;;;;;;;4.70;2.55;;;18.80;86.30;;;;;;4953160;28;20049;-84
2022/07/20 06:31:05;;;;;;;4.30;2.55;;;18.70;86.60;;;;;;4968350;28;20054;-88
2022/07/20 06:33:32;;;;;;;4.15;2.95;;;18.60;86.90;;;;;;4980968;28;20034;-88
2022/07/20 06:35:58;;;;;;;5.05;2.50;;;18.50;87.70;;;;;;4983330;28;20104;-85
2022/07/20 06:38:25;;;;;;;5.40;2.90;;;18.50;87.60;;;;;;4984032;28;20052;-87
2022/07/20 06:40:51;;;;;;;3.83;2.53;;;18.50;87.90;;;;;;4966512;28;20038;-88
2022/07/20 06:43:17;;;;;;;2.72;2.35;;;18.50;88.70;;;;;;4984224;28;20896;-89
2022/07/20 06:45:43;;;;;;;2.88;2.60;;;18.50;88.80;;;;;;4987147;28;20115;-90
2022/07/20 06:48:09;;;;;;;3.78;2.63;;;18.70;88.70;;;;;;4971515;28;20042;-94
2022/07/20 06:50:35;;;;;;;3.72;2.53;;;18.80;88.40;;;;;;4969240;28;20077;-91
2022/07/20 06:53:01;;;;;;;3.58;2.38;;;18.70;87.80;;;;;;4990898;28;20031;-92
2022/07/20 06:55:27;;;;;;;3.40;2.60;;;18.70;87.90;;;;;;4989102;28;20042;-88
2022/07/20 06:57:53;;;;;;;4.68;2.53;;;18.70;88.90;;;;;;4985474;28;20042;-91
2022/07/20 07:00:19;;;;;;;4.65;2.58;;;18.70;88.80;;;;;;4983850;28;20097;-84
2022/07/20 07:02:45;;;;;;;4.70;2.50;;;18.80;89.30;;;;;;4936755;28;20038;-84
2022/07/20 07:05:11;;;;;;;2.75;2.45;;;18.80;88.70;;;;;;4964262;28;20034;-85
2022/07/20 07:07:37;;;;;;;4.28;2.58;;;18.80;88.40;;;;;;4980671;28;20071;-86
2022/07/20 07:10:03;;;;;;;4.18;2.80;;;18.90;87.60;;;;;;4983504;28;20062;-88
2022/07/20 07:12:29;;;;;;;3.85;2.33;;;18.80;87.50;;;;;;4986793;28;20086;-95
2022/07/20 07:14:56;;;;;;;3.40;2.10;;;18.80;87.10;;;;;;4993621;28;20031;-94
2022/07/20 07:17:21;;;;;;;3.03;2.20;;;18.90;87.30;;;;;;4969121;28;20057;-92
2022/07/20 07:19:47;;;;;;;3.85;2.15;;;18.90;87.70;;;;;;4974902;28;20043;-93
2022/07/20 07:22:14;;;;;;;5.70;2.30;;;18.90;87.50;;;;;;4972599;28;20065;-82
2022/07/20 07:24:40;;;;;;;3.85;2.10;;;19.00;87.80;;;;;;4995110;28;20046;-90
2022/07/20 07:27:06;;;;;;;2.08;1.88;;;19.00;88.10;;;;;;4967233;28;20050;-88
2022/07/20 07:29:32;;;;;;;3.35;2.30;;;19.10;87.80;;;;;;4982208;28;20393;-91
2022/07/20 07:31:59;;;;;;;2.55;1.98;;;19.00;87.70;;;;;;4970584;28;20038;-84
2022/07/20 07:34:26;;;;;;;1.95;1.75;;;19.10;87.60;;;;;;4989518;28;20060;-94
2022/07/20 07:36:53;;;;;;;3.08;1.80;;;19.10;87.70;;;;;;5032228;23;20878;-94
2022/07/20 07:39:18;;;;;;;3.60;1.92;;;19.00;86.60;;;;;;4969688;28;20047;-87
2022/07/20 07:41:44;;;;;;;2.05;1.83;;;19.00;86.90;;;;;;4971090;28;20027;-90
2022/07/20 07:44:10;;;;;;;3.28;1.80;;;19.10;87.30;;;;;;4972789;28;20357;-90
2022/07/20 07:46:36;;;;;;;2.20;2.00;;;19.20;86.00;;;;;;4967936;28;20046;-92
2022/07/20 07:49:03;;;;;;;3.67;1.70;;;19.30;86.20;;;;;;4972838;28;20066;-90
2022/07/20 07:51:30;;;;;;;2.00;1.80;;;19.50;85.90;;;;;;4975767;28;20101;-89
2022/07/20 07:53:57;;;;;;;3.05;2.38;;;19.50;85.30;;;;;;4967728;28;20165;-91
2022/07/20 07:56:23;;;;;;;4.40;3.17;;;19.60;85.40;;;;;;4956471;28;20031;-90
2022/07/20 07:58:49;;;;;;;5.22;3.45;;;19.70;85.40;;;;;;4974106;28;20500;-93
2022/07/20 08:01:15;;;;;;;3.60;2.80;;;19.90;85.20;;;;;;4970886;28;20034;-91
2022/07/20 08:03:41;;;;;;;2.08;1.80;;;20.10;84.80;;;;;;4965866;28;20063;-90
2022/07/20 08:06:08;;;;;;;2.10;1.45;;;20.10;82.70;;;;;;4970084;28;20055;-88
2022/07/20 08:08:34;;;;;;;2.63;1.48;;;20.30;82.80;;;;;;4969383;28;20543;-90
2022/07/20 08:11:01;;;;;;;6.03;2.55;;;20.40;83.00;;;;;;4969035;28;20390;-88
2022/07/20 08:13:27;;;;;;;1.95;1.55;;;20.60;82.40;;;;;;4973033;28;20027;-92
2022/07/20 08:15:54;;;;;;;3.15;1.77;;;20.70;80.50;;;;;;4939805;28;20042;-96
2022/07/20 08:18:19;;;;;;;3.38;2.17;;;20.60;79.30;;;;;;4977602;28;20054;-90
2022/07/20 08:20:48;;;;;;;1.83;1.40;;;20.70;80.40;;;;;;4984127;28;20031;-88
2022/07/20 08:23:15;;;;;;;4.07;1.35;;;20.80;79.80;;;;;;4978263;28;20083;-95
2022/07/20 08:25:41;;;;;;;5.07;1.20;;;20.70;79.00;;;;;;4955018;28;20584;-93
2022/07/20 08:28:10;;;;;;;2.78;1.33;;;20.80;78.50;;;;;;4963283;28;20067;-96
2022/07/20 08:30:37;;;;;;;1.77;1.50;;;20.80;77.90;;;;;;4957271;28;20038;-88
2022/07/20 08:33:04;;;;;;;3.55;1.50;;;20.70;78.00;;;;;;4953374;28;20126;-92
2022/07/20 08:35:29;;;;;;;2.78;1.15;;;20.70;79.00;;;;;;4966300;28;20039;-90
2022/07/20 08:37:56;;;;;;;3.28;1.55;;;20.90;79.00;;;;;;4965447;28;20106;-89
2022/07/20 08:40:22;;;;;;;4.00;1.80;;;20.90;79.40;;;;;;4964960;28;20143;-85
2022/07/20 08:42:48;;;;;;;3.83;2.13;;;21.00;78.60;;;;;;4967337;28;20356;-93
2022/07/20 08:45:14;;;;;;;4.85;1.40;;;21.00;78.10;;;;;;4969145;28;20037;-87
2022/07/20 08:47:42;;;;;;;2.35;1.30;;;21.00;78.20;;;;;;4966563;28;20125;-87
2022/07/20 08:50:09;;;;;;;2.15;1.20;;;21.00;75.70;;;;;;4971386;28;20038;-88
2022/07/20 08:52:37;;;;;;;5.20;1.23;;;21.00;75.20;;;;;;5120678;23;20061;31
2022/07/20 08:55:05;;;;;;;1.95;0.88;;;20.90;72.90;;;;;;4927707;28;20055;-93
2022/07/20 08:57:31;;;;;;;1.40;1.10;;;20.90;73.40;;;;;;4927491;29;20040;-96
2022/07/20 08:59:57;;;;;;;1.35;0.90;;;20.90;73.40;;;;;;4915909;28;20040;-90
2022/07/20 09:02:24;;;;;;;1.33;0.80;;;21.00;74.60;;;;;;4937885;29;20063;-91
2022/07/20 09:04:54;;;;;;;1.58;0.90;;;21.10;74.80;;;;;;4920718;28;20131;-92
2022/07/20 09:07:43;;;;;;;1.73;0.80;;;21.10;72.50;;;;;;4917696;29;20108;-85
2022/07/20 09:10:15;;;;;;;1.10;0.65;;;21.10;71.80;;;;;;4916418;29;20040;-85
2022/07/20 09:12:54;;;;;;;1.20;0.80;;;21.20;72.50;;;;;;4923114;28;20032;-86
2022/07/20 09:15:31;;;;;;;2.38;0.60;;;21.20;71.70;;;;;;4930892;28;20131;-87
2022/07/20 09:18:05;;;;;;;1.75;1.00;;;21.20;71.50;;;;;;4915631;28;20067;-87
2022/07/20 09:20:36;;;;;;;2.13;0.60;;;21.30;70.00;;;;;;4895310;29;20046;-86
2022/07/20 09:23:11;;;;;;;3.95;1.17;;;21.30;71.00;;;;;;4892621;29;20052;-86
2022/07/20 09:25:37;;;;;;;1.42;0.77;;;21.30;69.70;;;;;;4916399;28;20130;-87
2022/07/20 09:28:03;;;;;;;1.05;0.90;;;21.30;69.10;;;;;;4933454;28;20095;-86
2022/07/20 09:30:30;;;;;;;1.67;0.80;;;21.20;67.70;;;;;;4932318;28;20032;-86
2022/07/20 09:33:03;;;;;;;1.80;0.77;;;21.20;69.30;;;;;;4917527;28;20425;-86
2022/07/20 09:35:34;;;;;;;2.50;1.20;;;21.20;69.70;;;;;;4934092;29;20112;-86
2022/07/20 09:38:06;;;;;;;3.95;1.10;;;21.30;70.20;;;;;;4930102;29;20127;-82
2022/07/20 09:40:40;;;;;;;1.77;1.00;;;21.30;70.70;;;;;;4915434;29;20043;-85
2022/07/20 09:43:06;;;;;;;3.30;1.23;;;21.30;70.50;;;;;;4918161;28;20067;-83
2022/07/20 09:45:33;;;;;;;2.58;0.93;;;21.30;69.10;;;;;;4915644;29;20399;-86
2022/07/20 09:48:25;;;;;;;5.32;1.30;;;21.30;69.10;;;;;;4931138;28;20039;-83
2022/07/20 09:50:51;;;;;;;2.40;1.00;;;21.40;70.20;;;;;;4865933;29;20045;-83
2022/07/20 09:53:17;;;;;;;3.40;1.10;;;21.40;70.90;;;;;;4866772;29;20093;-86
2022/07/20 09:55:43;;;;;;;3.33;1.13;;;21.40;70.40;;;;;;4839388;29;20033;-83
2022/07/20 09:58:10;;;;;;;2.00;0.93;;;21.50;70.30;;;;;;4865079;29;20045;-89
2022/07/20 10:00:37;;;;;;;1.83;1.30;;;21.50;69.90;;;;;;4843963;29;20060;-91
2022/07/20 10:03:04;;;;;;;1.30;1.08;;;21.50;69.30;;;;;;4863097;29;20496;-89
2022/07/20 10:05:34;;;;;;;2.45;1.10;;;21.50;70.20;;;;;;4867833;29;20054;-81
2022/07/20 10:08:03;;;;;;;2.95;1.05;;;21.50;69.80;;;;;;4853364;29;20101;-83
2022/07/20 10:10:29;;;;;;;3.17;0.98;;;21.50;68.40;;;;;;4854054;29;20037;-85
2022/07/20 10:12:57;;;;;;;4.00;1.20;;;21.40;68.50;;;;;;4849472;29;20033;-80
2022/07/20 10:15:31;;;;;;;4.22;1.17;;;21.40;68.70;;;;;;4848974;29;20041;-81
2022/07/20 10:17:57;;;;;;;2.35;1.02;;;21.40;69.10;;;;;;4869055;29;20094;-81
2022/07/20 10:20:41;;;;;;;3.53;1.10;;;21.40;69.90;;;;;;4865368;29;20044;-83
2022/07/20 10:23:28;;;;;;;2.90;1.20;;;21.40;68.20;;;;;;4854342;29;20057;-85
2022/07/20 10:25:56;;;;;;;2.08;1.00;;;21.30;68.00;;;;;;4851438;29;20369;-85
2022/07/20 10:28:36;;;;;;;1.20;1.00;;;21.40;69.10;;;;;;4901353;29;20044;-88
2022/07/20 10:31:08;;;;;;;1.90;1.40;;;21.40;69.70;;;;;;4930310;28;20044;-81
2022/07/20 10:33:37;;;;;;;1.63;0.82;;;21.50;68.90;;;;;;4916670;28;20522;-80
2022/07/20 10:38:56;;;;;;;1.73;0.65;;;21.40;69.30;;;;;;4918536;29;20095;-80
2022/07/20 10:41:32;;;;;;;4.07;0.68;;;21.30;68.90;;;;;;4917223;29;20046;-79
2022/07/20 10:44:19;;;;;;;3.08;0.75;;;21.40;69.20;;;;;;4921473;29;20043;-83
2022/07/20 10:46:46;;;;;;;1.33;0.45;;;21.40;68.70;;;;;;4916184;29;20115;-81
2022/07/20 10:49:12;;;;;;;1.50;0.77;;;21.30;68.40;;;;;;4931536;29;20091;-80
2022/07/20 10:51:38;;;;;;;2.70;0.63;;;21.30;68.50;;;;;;4914211;29;20816;-80
2022/07/20 10:54:36;;;;;;;1.65;0.52;;;21.30;68.90;;;;;;4928201;28;20040;-79
2022/07/20 10:57:03;;;;;;;4.43;0.70;;;21.30;68.40;;;;;;4886276;29;20112;-81
2022/07/20 10:59:29;;;;;;;4.25;0.82;;;21.30;68.30;;;;;;4901398;29;20061;-80
2022/07/20 11:01:55;;;;;;;2.20;1.05;;;21.30;68.40;;;;;;4902073;29;20069;-80
2022/07/20 11:04:21;;;;;;;1.77;0.68;;;21.30;68.20;;;;;;4900785;29;20048;-81
2022/07/20 11:06:48;;;;;;;1.90;0.80;;;21.30;66.80;;;;;;4902720;29;20452;-81
2022/07/20 11:09:15;;;;;;;2.35;0.77;;;21.30;67.60;;;;;;4905593;29;20407;-83
2022/07/20 11:11:42;;;;;;;2.10;0.88;;;21.30;67.60;;;;;;4885032;29;20040;-82
2022/07/20 11:14:10;;;;;;;2.38;0.80;;;21.30;67.10;;;;;;4890151;29;20088;-83
2022/07/20 11:16:37;;;;;;;3.13;0.82;;;21.30;67.20;;;;;;4908329;29;20044;-88
2022/07/20 11:19:05;;;;;;;1.85;0.80;;;21.20;66.80;;;;;;4908380;29;20040;-86
2022/07/20 11:21:40;;;;;;;3.42;0.63;;;21.30;66.40;;;;;;4896273;29;20128;-93
2022/07/20 11:24:24;;;;;;;1.33;0.80;;;21.20;65.50;;;;;;4911355;29;20037;-87
2022/07/20 11:26:51;;;;;;;1.98;0.80;;;21.20;66.40;;;;;;4908222;29;20051;-88
2022/07/20 11:29:17;;;;;;;0.73;0.73;;;21.20;67.00;;;;;;4903599;29;20095;-85
2022/07/20 11:31:44;;;;;;;1.73;0.60;;;21.20;66.10;;;;;;4890545;29;20186;-85
2022/07/20 11:34:13;;;;;;;3.42;0.82;;;21.20;66.40;;;;;;4918899;29;20040;-91
2022/07/20 11:36:39;;;;;;;2.38;1.10;;;21.10;66.40;;;;;;4927041;29;20619;-86
2022/07/20 11:39:09;;;;;;;3.97;1.55;;;21.20;67.10;;;;;;4932160;29;20035;-88
2022/07/20 11:41:38;;;;;;;3.53;1.00;;;21.20;66.40;;;;;;4924323;29;20039;-82
2022/07/20 11:44:07;;;;;;;1.17;0.60;;;21.20;66.90;;;;;;4925250;29;20047;-92
2022/07/20 11:46:40;;;;;;;1.75;0.50;;;21.20;66.00;;;;;;4920313;29;20047;-93
2022/07/20 11:49:13;;;;;;;2.22;0.70;;;21.20;65.50;;;;;;4935678;29;20040;-91
2022/07/20 11:51:42;;;;;;;3.45;1.80;;;21.20;66.10;;;;;;4922446;29;20040;-87
2022/07/20 11:54:08;;;;;;;4.30;1.20;;;21.20;66.30;;;;;;4941159;29;20043;-86
2022/07/20 11:56:36;;;;;;;0.88;0.50;;;21.20;65.80;;;;;;4958603;28;20039;-81
2022/07/20 11:59:05;;;;;;;1.55;0.70;;;21.20;64.70;;;;;;5036740;23;20027;31
2022/07/20 12:01:36;;;;;;;1.30;0.75;;;21.20;63.60;;;;;;4917201;29;20064;-84
2022/07/20 12:04:09;;;;;;;3.30;0.98;;;21.20;64.80;;;;;;4894783;29;20640;-87
2022/07/20 12:06:38;;;;;;;0.45;0.40;;;21.20;64.10;;;;;;4892914;29;20036;-94
2022/07/20 12:09:13;;;;;;;0.98;0.70;;;21.20;63.80;;;;;;4912352;29;20032;-87
2022/07/20 12:12:03;;;;;;;1.10;0.70;;;21.20;64.40;;;;;;4906473;29;20047;-79
2022/07/20 12:14:36;;;;;;;2.22;0.80;;;21.20;63.90;;;;;;4906256;29;20049;-88
2022/07/20 12:17:23;;;;;;;1.38;0.68;;;21.20;64.90;;;;;;4904096;29;20029;-92
2022/07/20 12:19:51;;;;;;;0.60;0.60;;;21.30;65.80;;;;;;4905338;29;20096;-95
2022/07/20 12:25:08;;;;;;;2.30;0.52;;;21.40;65.70;;;;;;5057561;23;20034;-86
2022/07/20 12:27:36;;;;;;;1.50;0.77;;;21.40;65.60;;;;;;5011371;28;20030;-83
2022/07/20 12:30:30;;;;;;;2.05;0.98;;;21.40;65.50;;;;;;5000469;28;20062;-90
2022/07/20 12:33:22;;;;;;;2.95;0.93;;;21.40;65.30;;;;;;4973488;28;20038;-90
2022/07/20 12:35:49;;;;;;;3.85;0.90;;;21.50;66.10;;;;;;4982494;28;20033;-93
2022/07/20 12:38:17;;;;;;;1.35;0.90;;;21.50;66.50;;;;;;5091625;23;20570;-89
2022/07/20 12:40:49;;;;;;;2.75;1.10;;;21.60;67.00;;;;;;4965283;28;20058;-92
2022/07/20 12:43:27;;;;;;;2.30;1.13;;;21.60;68.00;;;;;;4992390;28;20047;-96
2022/07/20 12:45:55;;;;;;;1.25;1.00;;;21.60;66.70;;;;;;4970779;28;20039;-87
2022/07/20 12:48:21;;;;;;;2.42;0.80;;;21.70;67.10;;;;;;4968379;28;20039;-89
2022/07/20 12:50:47;;;;;;;1.92;1.08;;;21.70;66.50;;;;;;4963384;28;20485;-88
2022/07/20 12:53:14;;;;;;;1.63;0.77;;;21.60;65.80;;;;;;4988305;28;20046;-87
2022/07/20 12:55:43;;;;;;;1.98;0.90;;;21.60;66.40;;;;;;4943491;28;20441;-86
2022/07/20 12:58:10;;;;;;;2.00;0.60;;;21.60;65.90;;;;;;4983606;28;20050;-86
2022/07/20 13:00:36;;;;;;;4.97;0.80;;;21.60;66.50;;;;;;4946829;28;20031;-88
2022/07/20 13:03:02;;;;;;;3.08;0.70;;;21.70;65.40;;;;;;4985526;28;20115;-91